createdAt,value
2022-09-27T00:00:43.891Z,10.90
2022-09-27T00:03:11.860Z,10.90
2022-09-27T00:05:39.268Z,11.00
2022-09-27T00:08:06.436Z,10.90
2022-09-27T00:10:33.199Z,10.90
2022-09-27T00:13:00.143Z,10.90
2022-09-27T00:15:26.956Z,10.90
2022-09-27T00:17:53.659Z,10.90
2022-09-27T00:20:21.035Z,10.90
2022-09-27T00:22:48.961Z,10.90
2022-09-27T00:25:16.463Z,10.90
2022-09-27T00:27:43.217Z,11.00
2022-09-27T00:30:11.084Z,10.90
2022-09-27T00:32:37.902Z,10.90
2022-09-27T00:35:04.975Z,11.00
2022-09-27T00:37:31.673Z,10.90
2022-09-27T00:39:58.633Z,10.90
2022-09-27T00:42:25.284Z,10.90
2022-09-27T00:45:17.746Z,10.80
2022-09-27T00:47:54.147Z,10.80
2022-09-27T00:50:29.092Z,10.90
2022-09-27T00:53:08.762Z,10.80
2022-09-27T00:55:41.215Z,10.80
2022-09-27T00:58:08.223Z,10.80
2022-09-27T01:00:37.924Z,10.80
2022-09-27T01:03:09.520Z,10.70
2022-09-27T01:05:36.189Z,10.80
2022-09-27T01:08:03.974Z,10.80
2022-09-27T01:10:38.498Z,10.80
2022-09-27T01:13:20.463Z,10.80
2022-09-27T01:15:55.604Z,10.80
2022-09-27T01:18:40.007Z,10.80
2022-09-27T01:21:32.681Z,10.80
2022-09-27T01:24:12.655Z,10.80
2022-09-27T01:26:57.266Z,10.80
2022-09-27T01:30:14.737Z,10.90
2022-09-27T01:32:51.234Z,10.90
2022-09-27T01:35:35.039Z,10.90
2022-09-27T01:38:13.971Z,10.90
2022-09-27T01:41:03.865Z,10.80
2022-09-27T01:43:40.451Z,10.90
2022-09-27T01:46:25.609Z,10.90
2022-09-27T01:48:54.298Z,10.90
2022-09-27T01:51:31.760Z,10.90
2022-09-27T01:54:03.057Z,10.80
2022-09-27T01:56:34.627Z,10.90
2022-09-27T01:59:29.378Z,10.80
2022-09-27T02:02:00.283Z,10.80
2022-09-27T02:04:32.267Z,10.80
2022-09-27T02:07:17.202Z,10.80
2022-09-27T02:10:07.714Z,10.80
2022-09-27T02:12:42.521Z,10.80
2022-09-27T02:15:12.436Z,10.80
2022-09-27T02:17:56.758Z,10.90
2022-09-27T02:20:31.272Z,10.90
2022-09-27T02:23:15.451Z,10.90
2022-09-27T02:25:46.670Z,10.90
2022-09-27T02:28:16.391Z,10.90
2022-09-27T02:30:43.191Z,10.80
2022-09-27T02:33:10.167Z,10.90
2022-09-27T02:35:36.916Z,10.90
2022-09-27T02:38:06.113Z,10.90
2022-09-27T02:40:35.472Z,10.90
2022-09-27T02:43:05.531Z,11.00
2022-09-27T02:45:55.522Z,10.90
2022-09-27T02:48:54.158Z,10.90
2022-09-27T02:51:42.595Z,10.80
2022-09-27T02:54:33.725Z,10.80
2022-09-27T02:57:03.398Z,10.90
2022-09-27T03:00:14.450Z,10.80
2022-09-27T03:02:41.089Z,10.70
2022-09-27T03:05:18.408Z,10.70
2022-09-27T03:07:45.150Z,10.70
2022-09-27T03:10:37.987Z,10.70
2022-09-27T03:13:05.394Z,10.70
2022-09-27T03:15:32.181Z,10.70
2022-09-27T03:17:58.811Z,10.70
2022-09-27T03:20:25.687Z,10.70
2022-09-27T03:22:52.384Z,10.70
2022-09-27T03:25:20.049Z,10.70
2022-09-27T03:27:46.742Z,10.70
2022-09-27T03:30:14.267Z,10.70
2022-09-27T03:32:45.100Z,10.60
2022-09-27T03:35:12.654Z,10.70
2022-09-27T03:37:40.911Z,10.60
2022-09-27T03:40:08.653Z,10.60
2022-09-27T03:42:35.303Z,10.60
2022-09-27T03:45:02.155Z,10.60
2022-09-27T03:47:28.770Z,10.60
2022-09-27T03:49:55.391Z,10.60
2022-09-27T03:52:22.090Z,10.60
2022-09-27T03:54:48.757Z,10.60
2022-09-27T03:57:15.411Z,10.60
2022-09-27T03:59:42.046Z,10.60
2022-09-27T04:02:08.754Z,10.60
2022-09-27T04:04:35.476Z,10.50
2022-09-27T04:07:02.265Z,10.50
2022-09-27T04:09:29.183Z,10.50
2022-09-27T04:11:55.824Z,10.40
2022-09-27T04:14:22.548Z,10.40
2022-09-27T04:16:49.228Z,10.40
2022-09-27T04:19:16.082Z,10.40
2022-09-27T04:21:42.941Z,10.40
2022-09-27T04:24:11.724Z,10.30
2022-09-27T04:26:39.921Z,10.30
2022-09-27T04:29:08.675Z,10.30
2022-09-27T04:31:37.111Z,10.30
2022-09-27T04:34:05.278Z,10.20
2022-09-27T04:36:32.279Z,10.20
2022-09-27T04:39:01.447Z,10.20
2022-09-27T04:41:28.703Z,10.20
2022-09-27T04:43:59.183Z,10.20
2022-09-27T04:46:29.959Z,10.20
2022-09-27T04:48:57.403Z,10.20
2022-09-27T04:51:24.003Z,10.20
2022-09-27T04:53:50.729Z,10.20
2022-09-27T04:56:17.409Z,10.20
2022-09-27T04:58:44.021Z,10.20
2022-09-27T05:01:11.020Z,10.10
2022-09-27T05:03:37.758Z,10.20
2022-09-27T05:06:04.631Z,10.20
2022-09-27T05:08:31.344Z,10.20
2022-09-27T05:10:58.406Z,10.10
2022-09-27T05:13:25.029Z,10.10
2022-09-27T05:15:52.599Z,10.20
2022-09-27T05:18:19.295Z,10.10
2022-09-27T05:20:46.537Z,10.10
2022-09-27T05:23:13.211Z,10.20
2022-09-27T05:25:39.857Z,10.20
2022-09-27T05:28:06.525Z,10.20
2022-09-27T05:30:33.366Z,10.20
2022-09-27T05:33:00.114Z,10.20
2022-09-27T05:35:27.018Z,10.20
2022-09-27T05:37:59.166Z,10.20
2022-09-27T05:40:40.842Z,10.20
2022-09-27T05:43:08.249Z,10.20
2022-09-27T05:45:34.890Z,10.20
2022-09-27T05:48:01.919Z,10.20
2022-09-27T05:50:29.048Z,10.20
2022-09-27T05:52:55.767Z,10.20
2022-09-27T05:55:22.563Z,10.20
2022-09-27T05:58:00.330Z,10.10
2022-09-27T06:00:28.162Z,10.20
2022-09-27T06:02:57.054Z,10.10
2022-09-27T06:05:25.113Z,10.10
2022-09-27T06:07:53.047Z,10.10
2022-09-27T06:10:20.110Z,10.10
2022-09-27T06:12:46.728Z,10.10
2022-09-27T06:15:14.565Z,10.10
2022-09-27T06:17:41.295Z,10.10
2022-09-27T06:20:09.159Z,10.10
2022-09-27T06:22:36.866Z,10.20
2022-09-27T06:25:04.596Z,10.20
2022-09-27T06:27:32.245Z,10.10
2022-09-27T06:29:58.925Z,10.10
2022-09-27T06:32:25.927Z,10.10
2022-09-27T06:34:53.670Z,10.10
2022-09-27T06:37:20.326Z,10.10
2022-09-27T06:39:48.997Z,10.10
2022-09-27T06:42:17.863Z,10.10
2022-09-27T06:44:48.189Z,10.20
2022-09-27T06:47:17.265Z,10.10
2022-09-27T06:49:43.870Z,10.10
2022-09-27T06:52:11.377Z,10.10
2022-09-27T06:54:38.071Z,10.20
2022-09-27T06:57:05.337Z,10.30
2022-09-27T06:59:50.632Z,10.50
2022-09-27T07:02:17.274Z,10.30
2022-09-27T07:04:44.031Z,10.40
2022-09-27T07:07:11.777Z,10.40
2022-09-27T07:09:40.163Z,10.40
2022-09-27T07:12:07.135Z,10.30
2022-09-27T07:14:34.644Z,10.40
2022-09-27T07:17:01.329Z,10.40
2022-09-27T07:19:28.360Z,10.40
2022-09-27T07:21:54.946Z,10.30
2022-09-27T07:24:21.530Z,10.30
2022-09-27T07:26:48.430Z,10.30
2022-09-27T07:29:15.431Z,10.20
2022-09-27T07:31:42.661Z,10.20
2022-09-27T07:34:09.400Z,10.10
2022-09-27T07:36:36.197Z,10.20
2022-09-27T07:39:02.832Z,10.10
2022-09-27T07:41:29.628Z,10.10
2022-09-27T07:43:57.731Z,10.10
2022-09-27T07:46:24.351Z,10.30
2022-09-27T07:48:52.376Z,10.30
2022-09-27T07:51:18.974Z,10.20
2022-09-27T07:53:45.642Z,10.20
2022-09-27T07:56:12.240Z,10.20
2022-09-27T07:58:40.210Z,10.20
2022-09-27T08:01:07.138Z,10.20
2022-09-27T08:03:34.859Z,10.20
2022-09-27T08:06:03.555Z,10.20
2022-09-27T08:08:30.197Z,10.20
2022-09-27T08:10:56.863Z,10.30
2022-09-27T08:13:23.552Z,10.30
2022-09-27T08:15:52.357Z,10.40
2022-09-27T08:18:21.818Z,10.50
2022-09-27T08:20:48.453Z,10.60
2022-09-27T08:23:15.070Z,10.80
2022-09-27T08:25:42.513Z,11.00
2022-09-27T08:28:09.482Z,10.90
2022-09-27T08:30:36.122Z,10.90
2022-09-27T08:33:03.432Z,10.90
2022-09-27T08:35:31.193Z,11.00
2022-09-27T08:38:02.238Z,11.10
2022-09-27T08:40:42.398Z,11.10
2022-09-27T08:43:15.083Z,10.90
2022-09-27T08:46:01.128Z,10.90
2022-09-27T08:48:29.707Z,10.90
2022-09-27T08:50:58.406Z,10.90
2022-09-27T08:53:47.249Z,10.90
2022-09-27T08:56:15.866Z,11.10
2022-09-27T08:58:49.117Z,11.30
2022-09-27T09:01:17.424Z,11.10
2022-09-27T09:03:52.260Z,11.10
2022-09-27T09:06:36.317Z,11.10
2022-09-27T09:09:13.402Z,11.10
2022-09-27T09:12:14.569Z,11.30
2022-09-27T09:14:58.839Z,11.40
2022-09-27T09:17:36.425Z,11.40
2022-09-27T09:20:17.032Z,11.40
2022-09-27T09:23:08.516Z,11.30
2022-09-27T09:26:06.380Z,11.20
2022-09-27T09:28:51.035Z,11.20
2022-09-27T09:31:36.607Z,11.40
2022-09-27T09:34:27.777Z,11.40
2022-09-27T09:37:16.590Z,11.60
2022-09-27T09:39:48.294Z,11.60
2022-09-27T09:42:31.225Z,11.70
2022-09-27T09:45:06.097Z,11.80
2022-09-27T09:47:41.726Z,12.00
2022-09-27T09:50:14.426Z,12.00
2022-09-27T09:52:46.500Z,12.00
2022-09-27T09:55:28.509Z,12.20
2022-09-27T09:58:02.271Z,12.20
2022-09-27T10:00:28.942Z,12.10
2022-09-27T10:02:59.587Z,12.10
2022-09-27T10:05:27.928Z,11.70
2022-09-27T10:07:59.905Z,11.50
2022-09-27T10:10:27.807Z,11.30
2022-09-27T10:12:55.783Z,10.90
2022-09-27T10:15:25.411Z,10.80
2022-09-27T10:17:56.236Z,10.80
2022-09-27T10:20:49.751Z,10.80
2022-09-27T10:23:21.032Z,10.90
2022-09-27T10:25:53.035Z,11.00
2022-09-27T10:28:37.326Z,11.10
2022-09-27T10:31:22.889Z,11.40
2022-09-27T10:34:05.435Z,11.30
2022-09-27T10:36:33.152Z,11.70
2022-09-27T10:39:01.927Z,12.00
2022-09-27T10:41:36.605Z,12.10
2022-09-27T10:44:15.496Z,12.30
2022-09-27T10:46:44.574Z,12.70
2022-09-27T10:49:28.859Z,12.80
2022-09-27T10:52:18.055Z,12.70
2022-09-27T10:54:53.666Z,12.60
2022-09-27T10:57:23.347Z,12.60
2022-09-27T11:00:03.293Z,12.40
2022-09-27T11:02:35.038Z,12.40
2022-09-27T11:05:14.676Z,12.30
2022-09-27T11:07:53.750Z,12.50
2022-09-27T11:10:36.321Z,12.30
2022-09-27T11:13:19.070Z,12.00
2022-09-27T11:16:00.634Z,11.40
2022-09-27T11:18:45.350Z,11.30
2022-09-27T11:21:36.808Z,11.00
2022-09-27T11:24:32.786Z,10.60
2022-09-27T11:27:21.598Z,10.10
2022-09-27T11:30:18.151Z,10.20
2022-09-27T11:33:12.879Z,10.20
2022-09-27T11:35:51.521Z,10.20
2022-09-27T11:38:52.677Z,10.50
2022-09-27T11:42:11.103Z,10.50
2022-09-27T11:45:34.120Z,10.70
2022-09-27T11:48:08.265Z,10.70
2022-09-27T11:51:22.745Z,10.40
2022-09-27T11:54:10.313Z,10.10
2022-09-27T11:56:55.376Z,9.90
2022-09-27T11:59:59.566Z,9.90
2022-09-27T12:02:59.681Z,10.00
2022-09-27T12:05:41.091Z,9.90
2022-09-27T12:08:39.054Z,10.00
2022-09-27T12:11:30.384Z,9.90
2022-09-27T12:14:14.067Z,9.80
2022-09-27T12:16:42.417Z,9.80
2022-09-27T12:19:30.290Z,9.80
2022-09-27T12:22:00.861Z,9.70
2022-09-27T12:24:28.114Z,9.80
2022-09-27T12:27:00.256Z,9.70
2022-09-27T12:29:33.947Z,9.70
2022-09-27T12:32:12.301Z,9.70
2022-09-27T12:35:04.220Z,9.70
2022-09-27T12:37:35.912Z,9.80
2022-09-27T12:40:30.567Z,9.70
2022-09-27T12:43:19.270Z,9.80
2022-09-27T12:45:50.964Z,9.90
2022-09-27T12:49:05.082Z,10.00
2022-09-27T12:51:56.453Z,10.20
2022-09-27T12:54:32.241Z,10.40
2022-09-27T12:57:18.290Z,10.50
2022-09-27T13:00:12.571Z,10.50
2022-09-27T13:03:14.237Z,10.80
2022-09-27T13:06:22.680Z,10.90
2022-09-27T13:09:22.858Z,10.80
2022-09-27T13:12:01.276Z,10.90
2022-09-27T13:14:33.516Z,11.20
2022-09-27T13:17:00.210Z,11.20
2022-09-27T13:19:36.031Z,11.20
2022-09-27T13:22:26.943Z,11.20
2022-09-27T13:24:54.661Z,11.40
2022-09-27T13:27:30.440Z,11.60
2022-09-27T13:30:12.286Z,11.80
2022-09-27T13:32:40.759Z,11.90
2022-09-27T13:35:19.215Z,12.00
2022-09-27T13:37:51.530Z,12.00
2022-09-27T13:40:24.283Z,12.30
2022-09-27T13:42:53.970Z,12.40
2022-09-27T13:45:31.575Z,12.70
2022-09-27T13:48:00.522Z,13.00
2022-09-27T13:50:37.397Z,13.30
2022-09-27T13:53:21.714Z,13.40
2022-09-27T13:55:51.010Z,13.30
2022-09-27T13:58:36.223Z,13.10
2022-09-27T14:01:26.116Z,13.00
2022-09-27T14:04:04.846Z,12.50
2022-09-27T14:06:41.562Z,12.20
2022-09-27T14:09:21.183Z,12.00
2022-09-27T14:11:55.502Z,11.70
2022-09-27T14:14:31.182Z,11.70
2022-09-27T14:17:00.574Z,11.30
2022-09-27T14:19:28.835Z,10.50
2022-09-27T14:21:56.748Z,10.30
2022-09-27T14:24:35.691Z,10.30
2022-09-27T14:27:09.443Z,10.10
2022-09-27T14:29:42.073Z,10.00
2022-09-27T14:32:14.395Z,9.80
2022-09-27T14:34:41.004Z,9.50
2022-09-27T14:37:24.005Z,9.50
2022-09-27T14:40:06.138Z,9.50
2022-09-27T14:42:36.679Z,9.50
2022-09-27T14:45:22.550Z,9.80
2022-09-27T14:47:50.531Z,10.00
2022-09-27T14:50:27.046Z,9.90
2022-09-27T14:52:57.602Z,10.20
2022-09-27T14:55:28.222Z,10.20
2022-09-27T14:58:04.489Z,10.40
2022-09-27T15:00:35.218Z,10.40
2022-09-27T15:03:05.564Z,10.50
2022-09-27T15:05:34.106Z,10.30
2022-09-27T15:08:03.853Z,10.10
2022-09-27T15:10:33.325Z,10.10
2022-09-27T15:13:01.645Z,10.30
2022-09-27T15:15:34.024Z,10.50
2022-09-27T15:18:01.799Z,10.50
2022-09-27T15:20:34.989Z,10.50
2022-09-27T15:23:04.567Z,10.50
2022-09-27T15:25:36.977Z,10.40
2022-09-27T15:28:14.450Z,10.40
2022-09-27T15:30:43.482Z,10.40
2022-09-27T15:33:22.523Z,10.40
2022-09-27T15:35:55.014Z,10.50
2022-09-27T15:38:28.883Z,10.40
2022-09-27T15:40:55.487Z,10.50
2022-09-27T15:43:39.440Z,10.40
2022-09-27T15:46:27.456Z,10.40
2022-09-27T15:49:17.660Z,10.60
2022-09-27T15:51:52.183Z,10.80
2022-09-27T15:54:23.944Z,10.70
2022-09-27T15:56:55.576Z,10.80
2022-09-27T15:59:27.994Z,10.80
2022-09-27T16:01:55.831Z,10.80
2022-09-27T16:04:22.955Z,10.90
2022-09-27T16:06:49.884Z,10.90
2022-09-27T16:09:18.822Z,10.80
2022-09-27T16:11:46.871Z,10.70
2022-09-27T16:14:16.723Z,10.70
2022-09-27T16:16:46.519Z,10.70
2022-09-27T16:19:13.661Z,10.80
2022-09-27T16:21:41.541Z,10.70
2022-09-27T16:24:08.867Z,10.60
2022-09-27T16:26:35.959Z,10.60
2022-09-27T16:29:02.702Z,10.60
2022-09-27T16:31:29.384Z,10.60
2022-09-27T16:33:56.045Z,10.50
2022-09-27T16:36:22.730Z,10.30
2022-09-27T16:38:53.258Z,9.90
2022-09-27T16:41:21.506Z,9.70
2022-09-27T16:43:48.479Z,9.70
2022-09-27T16:46:18.980Z,9.70
2022-09-27T16:48:47.359Z,9.60
2022-09-27T16:51:36.844Z,9.60
2022-09-27T16:54:07.916Z,9.60
2022-09-27T16:56:35.438Z,9.60
2022-09-27T16:59:03.501Z,9.60
2022-09-27T17:01:33.823Z,9.60
2022-09-27T17:04:00.747Z,9.50
2022-09-27T17:06:28.497Z,9.50
2022-09-27T17:08:55.833Z,9.50
2022-09-27T17:11:23.006Z,9.50
2022-09-27T17:13:54.486Z,9.40
2022-09-27T17:16:21.586Z,9.50
2022-09-27T17:18:48.270Z,9.50
2022-09-27T17:21:14.879Z,9.50
2022-09-27T17:23:41.974Z,9.40
2022-09-27T17:26:18.091Z,9.50
2022-09-27T17:28:45.493Z,9.40
2022-09-27T17:31:15.587Z,9.40
2022-09-27T17:33:48.315Z,9.50
2022-09-27T17:36:20.986Z,9.50
2022-09-27T17:38:48.563Z,9.50
2022-09-27T17:41:17.656Z,9.50
2022-09-27T17:43:51.619Z,9.50
2022-09-27T17:46:20.720Z,9.50
2022-09-27T17:49:06.430Z,9.50
2022-09-27T17:51:34.975Z,9.50
2022-09-27T17:54:02.165Z,9.60
2022-09-27T17:56:28.823Z,9.60
2022-09-27T17:58:56.375Z,9.70
2022-09-27T18:01:24.729Z,9.70
2022-09-27T18:04:00.282Z,9.70
2022-09-27T18:06:28.712Z,9.60
2022-09-27T18:08:56.672Z,9.60
2022-09-27T18:11:28.936Z,9.60
2022-09-27T18:13:59.912Z,9.70
2022-09-27T18:16:32.426Z,9.60
2022-09-27T18:19:00.360Z,9.60
2022-09-27T18:21:27.873Z,9.60
2022-09-27T18:23:59.458Z,9.50
2022-09-27T18:26:28.848Z,9.50
2022-09-27T18:29:01.072Z,9.40
2022-09-27T18:31:27.893Z,9.30
2022-09-27T18:33:54.605Z,9.20
2022-09-27T18:36:24.838Z,9.20
2022-09-27T18:38:57.102Z,9.20
2022-09-27T18:41:25.596Z,9.10
2022-09-27T18:43:58.711Z,9.10
2022-09-27T18:46:35.648Z,9.00
2022-09-27T18:49:11.637Z,9.00
2022-09-27T18:51:43.447Z,9.00
2022-09-27T18:54:21.403Z,8.90
2022-09-27T18:56:50.117Z,8.90
2022-09-27T18:59:17.434Z,8.80
2022-09-27T19:01:47.629Z,8.80
2022-09-27T19:04:24.789Z,8.80
2022-09-27T19:06:56.948Z,8.80
2022-09-27T19:09:26.104Z,8.70
2022-09-27T19:11:53.100Z,8.70
2022-09-27T19:14:22.254Z,8.70
2022-09-27T19:16:49.263Z,8.60
2022-09-27T19:19:16.901Z,8.70
2022-09-27T19:21:44.021Z,8.60
2022-09-27T19:24:11.778Z,8.50
2022-09-27T19:26:38.618Z,8.50
2022-09-27T19:29:06.357Z,8.50
2022-09-27T19:31:33.752Z,8.50
2022-09-27T19:34:00.859Z,8.50
2022-09-27T19:36:28.704Z,8.50
2022-09-27T19:38:58.199Z,8.50
2022-09-27T19:41:24.930Z,8.40
2022-09-27T19:43:52.801Z,8.40
2022-09-27T19:46:20.222Z,8.40
2022-09-27T19:48:49.796Z,8.40
2022-09-27T19:51:21.816Z,8.40
2022-09-27T19:53:49.550Z,8.40
2022-09-27T19:56:16.732Z,8.40
2022-09-27T19:58:43.896Z,8.30
2022-09-27T20:01:13.373Z,8.30
2022-09-27T20:03:42.417Z,8.30
2022-09-27T20:06:11.726Z,8.30
2022-09-27T20:08:39.041Z,8.30
2022-09-27T20:11:08.230Z,8.30
2022-09-27T20:13:37.380Z,8.30
2022-09-27T20:16:09.927Z,8.30
2022-09-27T20:18:44.054Z,8.30
2022-09-27T20:21:11.470Z,8.30
2022-09-27T20:23:38.474Z,8.30
2022-09-27T20:26:10.318Z,8.30
2022-09-27T20:28:58.513Z,8.30
2022-09-27T20:31:27.953Z,8.30
2022-09-27T20:33:55.170Z,8.30
2022-09-27T20:36:24.508Z,8.30
2022-09-27T20:39:01.911Z,8.30
2022-09-27T20:41:31.150Z,8.30
2022-09-27T20:44:00.398Z,8.30
2022-09-27T20:46:27.198Z,8.30
2022-09-27T20:48:56.645Z,8.40
2022-09-27T20:51:23.878Z,8.30
2022-09-27T20:53:51.332Z,8.40
2022-09-27T20:56:26.997Z,8.40
2022-09-27T20:58:55.682Z,8.50
2022-09-27T21:01:23.859Z,8.50
2022-09-27T21:04:01.431Z,8.50
2022-09-27T21:06:30.276Z,8.50
2022-09-27T21:08:57.806Z,8.50
2022-09-27T21:11:24.812Z,8.50
2022-09-27T21:13:52.293Z,8.50
2022-09-27T21:16:24.113Z,8.40
2022-09-27T21:18:58.536Z,8.40
2022-09-27T21:21:26.154Z,8.40
2022-09-27T21:23:58.157Z,8.30
2022-09-27T21:26:27.123Z,8.30
2022-09-27T21:28:56.101Z,8.40
2022-09-27T21:31:25.607Z,8.50
2022-09-27T21:33:54.980Z,8.50
2022-09-27T21:36:23.304Z,8.50
2022-09-27T21:38:50.466Z,8.50
2022-09-27T21:41:17.426Z,8.50
2022-09-27T21:43:45.842Z,8.50
2022-09-27T21:46:14.910Z,8.50
2022-09-27T21:48:44.149Z,8.50
2022-09-27T21:51:20.370Z,8.40
2022-09-27T21:54:08.606Z,8.40
2022-09-27T21:56:37.566Z,8.40
2022-09-27T21:59:05.456Z,8.40
2022-09-27T22:01:33.962Z,8.30
2022-09-27T22:04:02.047Z,8.40
2022-09-27T22:06:33.936Z,8.30
2022-09-27T22:09:01.621Z,8.30
2022-09-27T22:11:31.105Z,8.20
2022-09-27T22:13:58.517Z,8.20
2022-09-27T22:16:32.012Z,8.20
2022-09-27T22:18:59.399Z,8.00
2022-09-27T22:21:31.921Z,8.10
2022-09-27T22:24:07.703Z,8.00
2022-09-27T22:26:36.793Z,8.00
2022-09-27T22:29:04.813Z,7.90
2022-09-27T22:31:31.450Z,7.80
2022-09-27T22:34:03.485Z,7.70
2022-09-27T22:36:31.043Z,7.70
2022-09-27T22:38:58.099Z,7.60
2022-09-27T22:41:25.445Z,7.70
2022-09-27T22:43:55.257Z,7.60
2022-09-27T22:46:22.123Z,7.60
2022-09-27T22:48:49.565Z,7.50
2022-09-27T22:51:16.815Z,7.50
2022-09-27T22:53:44.082Z,7.50
2022-09-27T22:56:20.087Z,7.50
2022-09-27T22:58:48.093Z,7.50
2022-09-27T23:01:24.975Z,7.40
2022-09-27T23:03:53.462Z,7.40
2022-09-27T23:06:21.647Z,7.40
2022-09-27T23:08:48.664Z,7.30
2022-09-27T23:11:20.786Z,7.30
2022-09-27T23:13:48.893Z,7.30
2022-09-27T23:16:17.614Z,7.30
2022-09-27T23:18:44.841Z,7.40
2022-09-27T23:21:13.389Z,7.40
2022-09-27T23:23:44.559Z,7.30
2022-09-27T23:26:13.281Z,7.40
2022-09-27T23:28:40.482Z,7.30
2022-09-27T23:31:15.367Z,7.30
2022-09-27T23:33:44.823Z,7.30
2022-09-27T23:36:17.322Z,7.20
2022-09-27T23:38:45.697Z,7.30
2022-09-27T23:41:13.580Z,7.30
2022-09-27T23:43:40.174Z,7.20
2022-09-27T23:46:08.639Z,7.20
2022-09-27T23:48:36.624Z,7.20
2022-09-27T23:51:06.628Z,7.20
2022-09-27T23:53:33.441Z,7.30
2022-09-27T23:56:07.385Z,7.30
2022-09-27T23:58:35.807Z,7.40
